sensor_id;sensor_type;location;lat;lon;timestamp;temperature;humidity
35111;DHT22;21290;50.158;8.658;2024-01-30T05:39:21;1.00;99.90
35111;DHT22;21290;50.158;8.658;2024-01-30T05:41:51;1.10;99.90
35111;DHT22;21290;50.158;8.658;2024-01-30T05:44:18;1.10;99.90
35111;DHT22;21290;50.158;8.658;2024-01-30T05:46:48;1.10;99.90
35111;DHT22;21290;50.158;8.658;2024-01-30T05:49:44;1.20;99.90
35111;DHT22;21290;50.158;8.658;2024-01-30T05:52:18;1.20;99.90
35111;DHT22;21290;50.158;8.658;2024-01-30T05:54:59;1.20;99.90
35111;DHT22;21290;50.158;8.658;2024-01-30T05:57:29;1.20;99.90
35111;DHT22;21290;50.158;8.658;2024-01-30T06:00:10;1.20;99.90
35111;DHT22;21290;50.158;8.658;2024-01-30T06:02:47;1.30;99.90
35111;DHT22;21290;50.158;8.658;2024-01-30T06:05:50;1.50;99.90
35111;DHT22;21290;50.158;8.658;2024-01-30T06:08:17;1.60;99.90
35111;DHT22;21290;50.158;8.658;2024-01-30T06:10:45;1.60;99.90
35111;DHT22;21290;50.158;8.658;2024-01-30T06:13:12;1.70;99.90
35111;DHT22;21290;50.158;8.658;2024-01-30T06:15:43;1.70;99.90
35111;DHT22;21290;50.158;8.658;2024-01-30T06:18:21;1.70;99.90
35111;DHT22;21290;50.158;8.658;2024-01-30T06:20:56;1.70;99.90
35111;DHT22;21290;50.158;8.658;2024-01-30T06:23:27;1.70;99.90
35111;DHT22;21290;50.158;8.658;2024-01-30T06:25:54;1.90;99.90
35111;DHT22;21290;50.158;8.658;2024-01-30T06:28:38;1.90;99.90
35111;DHT22;21290;50.158;8.658;2024-01-30T06:31:04;1.90;99.90
35111;DHT22;21290;50.158;8.658;2024-01-30T06:33:35;1.80;99.90
35111;DHT22;21290;50.158;8.658;2024-01-30T07:16:29;1.50;99.90
35111;DHT22;21290;50.158;8.658;2024-01-30T07:19:04;1.50;99.90
35111;DHT22;21290;50.158;8.658;2024-01-30T07:21:31;1.50;99.90
35111;DHT22;21290;50.158;8.658;2024-01-30T07:23:58;1.60;99.90
35111;DHT22;21290;50.158;8.658;2024-01-30T07:26:25;1.60;99.90
35111;DHT22;21290;50.158;8.658;2024-01-30T07:28:52;1.60;99.90
35111;DHT22;21290;50.158;8.658;2024-01-30T07:31:20;1.60;99.90
35111;DHT22;21290;50.158;8.658;2024-01-30T07:33:50;1.70;99.90
35111;DHT22;21290;50.158;8.658;2024-01-30T07:36:17;1.70;99.90
35111;DHT22;21290;50.158;8.658;2024-01-30T07:42:45;2.00;99.90
35111;DHT22;21290;50.158;8.658;2024-01-30T07:46:25;2.10;99.90
35111;DHT22;21290;50.158;8.658;2024-01-30T07:49:57;2.20;99.90
35111;DHT22;21290;50.158;8.658;2024-01-30T07:52:45;2.40;99.90
35111;DHT22;21290;50.158;8.658;2024-01-30T07:55:12;2.50;99.90
35111;DHT22;21290;50.158;8.658;2024-01-30T07:57:48;2.60;99.90
35111;DHT22;21290;50.158;8.658;2024-01-30T08:00:25;2.60;99.90
35111;DHT22;21290;50.158;8.658;2024-01-30T08:07:28;3.00;99.90
35111;DHT22;21290;50.158;8.658;2024-01-30T08:10:30;3.30;99.90
35111;DHT22;21290;50.158;8.658;2024-01-30T08:13:05;3.50;99.90
35111;DHT22;21290;50.158;8.658;2024-01-30T08:19:16;3.80;99.90
35111;DHT22;21290;50.158;8.658;2024-01-30T08:22:37;3.90;99.90
35111;DHT22;21290;50.158;8.658;2024-01-30T08:29:18;4.20;99.90
35111;DHT22;21290;50.158;8.658;2024-01-30T08:31:58;4.40;99.90
35111;DHT22;21290;50.158;8.658;2024-01-30T08:34:52;4.50;99.90
35111;DHT22;21290;50.158;8.658;2024-01-30T08:37:58;4.60;99.90
35111;DHT22;21290;50.158;8.658;2024-01-30T08:40:47;4.70;99.90
35111;DHT22;21290;50.158;8.658;2024-01-30T08:43:17;4.80;99.90
35111;DHT22;21290;50.158;8.658;2024-01-30T08:46:11;5.00;99.90
35111;DHT22;21290;50.158;8.658;2024-01-30T08:48:42;5.10;99.90
35111;DHT22;21290;50.158;8.658;2024-01-30T08:59:09;5.30;99.90
35111;DHT22;21290;50.158;8.658;2024-01-30T09:01:41;5.50;99.90
35111;DHT22;21290;50.158;8.658;2024-01-30T09:04:23;5.70;99.90
35111;DHT22;21290;50.158;8.658;2024-01-30T09:06:52;5.90;99.90
35111;DHT22;21290;50.158;8.658;2024-01-30T09:09:22;6.00;99.90
35111;DHT22;21290;50.158;8.658;2024-01-30T09:11:52;5.90;99.90
35111;DHT22;21290;50.158;8.658;2024-01-30T09:14:40;5.60;99.90
35111;DHT22;21290;50.158;8.658;2024-01-30T09:17:09;5.30;99.90
35111;DHT22;21290;50.158;8.658;2024-01-30T09:19:37;5.20;99.90
35111;DHT22;21290;50.158;8.658;2024-01-30T09:25:25;4.80;99.90
35111;DHT22;21290;50.158;8.658;2024-01-30T09:27:57;4.70;99.90
35111;DHT22;21290;50.158;8.658;2024-01-30T09:30:44;4.70;99.90
35111;DHT22;21290;50.158;8.658;2024-01-30T09:33:14;4.70;99.90
35111;DHT22;21290;50.158;8.658;2024-01-30T09:36:06;4.70;99.90
35111;DHT22;21290;50.158;8.658;2024-01-30T09:38:49;4.80;99.90
35111;DHT22;21290;50.158;8.658;2024-01-30T09:41:19;4.90;99.90
35111;DHT22;21290;50.158;8.658;2024-01-30T09:43:48;4.90;99.90
35111;DHT22;21290;50.158;8.658;2024-01-30T09:46:19;4.90;99.90
35111;DHT22;21290;50.158;8.658;2024-01-30T09:49:02;5.10;99.90
35111;DHT22;21290;50.158;8.658;2024-01-30T09:52:41;5.20;99.90
35111;DHT22;21290;50.158;8.658;2024-01-30T09:55:11;5.30;99.90
35111;DHT22;21290;50.158;8.658;2024-01-30T09:57:47;5.40;99.90
35111;DHT22;21290;50.158;8.658;2024-01-30T10:00:17;5.40;99.90
35111;DHT22;21290;50.158;8.658;2024-01-30T10:02:44;5.50;99.90
35111;DHT22;21290;50.158;8.658;2024-01-30T10:05:15;5.50;99.90
35111;DHT22;21290;50.158;8.658;2024-01-30T10:07:53;5.60;99.90
35111;DHT22;21290;50.158;8.658;2024-01-30T10:10:23;5.70;99.90
35111;DHT22;21290;50.158;8.658;2024-01-30T10:12:50;5.70;99.90
35111;DHT22;21290;50.158;8.658;2024-01-30T10:15:17;5.60;99.90
35111;DHT22;21290;50.158;8.658;2024-01-30T10:17:46;5.60;99.90
35111;DHT22;21290;50.158;8.658;2024-01-30T10:20:14;5.60;99.90
35111;DHT22;21290;50.158;8.658;2024-01-30T10:22:41;5.50;99.90
35111;DHT22;21290;50.158;8.658;2024-01-30T10:25:12;5.50;99.90
35111;DHT22;21290;50.158;8.658;2024-01-30T10:27:39;5.40;99.90
35111;DHT22;21290;50.158;8.658;2024-01-30T10:30:08;5.60;99.90
35111;DHT22;21290;50.158;8.658;2024-01-30T10:32:45;5.70;99.90
35111;DHT22;21290;50.158;8.658;2024-01-30T10:35:28;5.80;99.90
35111;DHT22;21290;50.158;8.658;2024-01-30T10:38:02;6.00;99.90
35111;DHT22;21290;50.158;8.658;2024-01-30T10:40:32;6.20;99.90
35111;DHT22;21290;50.158;8.658;2024-01-30T10:43:01;6.10;99.90
35111;DHT22;21290;50.158;8.658;2024-01-30T10:45:31;6.00;99.90
35111;DHT22;21290;50.158;8.658;2024-01-30T10:48:02;5.90;99.90
35111;DHT22;21290;50.158;8.658;2024-01-30T10:50:33;5.80;99.90
35111;DHT22;21290;50.158;8.658;2024-01-30T10:53:15;5.80;99.90
35111;DHT22;21290;50.158;8.658;2024-01-30T10:55:58;5.80;99.90
35111;DHT22;21290;50.158;8.658;2024-01-30T10:58:27;5.90;99.90
35111;DHT22;21290;50.158;8.658;2024-01-30T11:00:54;6.00;99.90
35111;DHT22;21290;50.158;8.658;2024-01-30T11:03:23;6.20;99.90
35111;DHT22;21290;50.158;8.658;2024-01-30T11:05:53;6.70;99.90
35111;DHT22;21290;50.158;8.658;2024-01-30T11:08:35;7.30;99.90
35111;DHT22;21290;50.158;8.658;2024-01-30T11:11:08;7.70;99.90
35111;DHT22;21290;50.158;8.658;2024-01-30T11:13:35;7.70;99.90
35111;DHT22;21290;50.158;8.658;2024-01-30T11:16:06;7.80;99.90
35111;DHT22;21290;50.158;8.658;2024-01-30T11:18:35;8.10;99.90
35111;DHT22;21290;50.158;8.658;2024-01-30T11:21:05;8.20;99.90
35111;DHT22;21290;50.158;8.658;2024-01-30T11:23:33;8.30;99.90
35111;DHT22;21290;50.158;8.658;2024-01-30T11:26:01;8.30;99.90
35111;DHT22;21290;50.158;8.658;2024-01-30T11:28:33;8.40;99.90
35111;DHT22;21290;50.158;8.658;2024-01-30T11:31:05;8.80;99.90
35111;DHT22;21290;50.158;8.658;2024-01-30T11:33:34;9.00;99.90
35111;DHT22;21290;50.158;8.658;2024-01-30T11:36:01;9.10;99.90
35111;DHT22;21290;50.158;8.658;2024-01-30T11:38:29;8.90;99.90
35111;DHT22;21290;50.158;8.658;2024-01-30T11:40:56;8.80;99.90
35111;DHT22;21290;50.158;8.658;2024-01-30T11:43:24;8.60;99.90
35111;DHT22;21290;50.158;8.658;2024-01-30T11:45:52;8.80;99.90
35111;DHT22;21290;50.158;8.658;2024-01-30T11:48:25;8.90;99.90
35111;DHT22;21290;50.158;8.658;2024-01-30T11:54:52;9.20;99.90
35111;DHT22;21290;50.158;8.658;2024-01-30T11:58:14;9.50;99.90
35111;DHT22;21290;50.158;8.658;2024-01-30T12:00:57;10.00;99.90
35111;DHT22;21290;50.158;8.658;2024-01-30T12:03:42;10.00;99.90
35111;DHT22;21290;50.158;8.658;2024-01-30T12:06:28;9.70;99.90
35111;DHT22;21290;50.158;8.658;2024-01-30T12:09:16;9.60;99.90
35111;DHT22;21290;50.158;8.658;2024-01-30T12:12:11;9.40;99.90
35111;DHT22;21290;50.158;8.658;2024-01-30T12:14:39;9.30;99.90
35111;DHT22;21290;50.158;8.658;2024-01-30T12:17:12;9.30;99.90
35111;DHT22;21290;50.158;8.658;2024-01-30T12:20:17;9.20;99.90
35111;DHT22;21290;50.158;8.658;2024-01-30T12:23:29;9.10;99.90
35111;DHT22;21290;50.158;8.658;2024-01-30T12:30:01;8.90;99.90
35111;DHT22;21290;50.158;8.658;2024-01-30T12:33:24;8.90;99.90
35111;DHT22;21290;50.158;8.658;2024-01-30T12:36:26;8.90;99.90
35111;DHT22;21290;50.158;8.658;2024-01-30T12:43:00;8.90;99.90
35111;DHT22;21290;50.158;8.658;2024-01-30T12:46:29;9.00;99.90
35111;DHT22;21290;50.158;8.658;2024-01-30T12:49:03;9.00;99.90
35111;DHT22;21290;50.158;8.658;2024-01-30T12:51:35;8.90;99.90
35111;DHT22;21290;50.158;8.658;2024-01-30T12:54:12;8.70;99.90
35111;DHT22;21290;50.158;8.658;2024-01-30T12:57:09;8.80;99.90
35111;DHT22;21290;50.158;8.658;2024-01-30T12:59:47;9.00;99.90
35111;DHT22;21290;50.158;8.658;2024-01-30T13:02:22;9.00;99.90
35111;DHT22;21290;50.158;8.658;2024-01-30T13:04:49;8.90;99.90
35111;DHT22;21290;50.158;8.658;2024-01-30T13:07:17;8.90;99.90
35111;DHT22;21290;50.158;8.658;2024-01-30T13:09:45;9.00;99.90
35111;DHT22;21290;50.158;8.658;2024-01-30T13:12:12;9.10;99.90
35111;DHT22;21290;50.158;8.658;2024-01-30T13:14:39;9.20;99.90
35111;DHT22;21290;50.158;8.658;2024-01-30T13:17:07;9.30;99.90
35111;DHT22;21290;50.158;8.658;2024-01-30T13:19:35;9.30;99.90
35111;DHT22;21290;50.158;8.658;2024-01-30T13:22:02;9.30;99.90
35111;DHT22;21290;50.158;8.658;2024-01-30T13:24:33;9.30;99.90
35111;DHT22;21290;50.158;8.658;2024-01-30T13:27:00;9.30;99.90
35111;DHT22;21290;50.158;8.658;2024-01-30T13:29:30;9.20;99.90
35111;DHT22;21290;50.158;8.658;2024-01-30T13:31:58;9.10;99.90
35111;DHT22;21290;50.158;8.658;2024-01-30T13:34:25;9.00;99.90
35111;DHT22;21290;50.158;8.658;2024-01-30T13:36:55;9.00;99.90
35111;DHT22;21290;50.158;8.658;2024-01-30T13:39:28;8.90;99.90
35111;DHT22;21290;50.158;8.658;2024-01-30T13:42:05;8.90;99.90
35111;DHT22;21290;50.158;8.658;2024-01-30T13:44:32;8.80;99.90
35111;DHT22;21290;50.158;8.658;2024-01-30T13:46:59;8.80;99.90
35111;DHT22;21290;50.158;8.658;2024-01-30T13:49:26;8.60;99.90
35111;DHT22;21290;50.158;8.658;2024-01-30T13:51:55;8.60;99.90
35111;DHT22;21290;50.158;8.658;2024-01-30T13:54:23;8.70;99.90
35111;DHT22;21290;50.158;8.658;2024-01-30T13:56:50;8.70;99.90
35111;DHT22;21290;50.158;8.658;2024-01-30T14:04:40;8.70;99.90
35111;DHT22;21290;50.158;8.658;2024-01-30T14:07:08;8.70;99.90
35111;DHT22;21290;50.158;8.658;2024-01-30T14:09:35;8.80;99.90
35111;DHT22;21290;50.158;8.658;2024-01-30T14:12:03;8.70;99.90
35111;DHT22;21290;50.158;8.658;2024-01-30T14:14:30;8.70;99.90
35111;DHT22;21290;50.158;8.658;2024-01-30T14:16:57;8.80;99.90
35111;DHT22;21290;50.158;8.658;2024-01-30T14:19:25;8.70;99.90
35111;DHT22;21290;50.158;8.658;2024-01-30T14:21:52;8.60;99.90
35111;DHT22;21290;50.158;8.658;2024-01-30T14:24:19;8.60;99.90
35111;DHT22;21290;50.158;8.658;2024-01-30T14:26:46;8.50;99.90
35111;DHT22;21290;50.158;8.658;2024-01-30T14:29:14;8.50;99.90
35111;DHT22;21290;50.158;8.658;2024-01-30T14:31:40;8.50;99.90
35111;DHT22;21290;50.158;8.658;2024-01-30T14:34:07;8.40;99.90
35111;DHT22;21290;50.158;8.658;2024-01-30T14:36:36;8.40;99.90
35111;DHT22;21290;50.158;8.658;2024-01-30T14:39:11;8.40;99.90
35111;DHT22;21290;50.158;8.658;2024-01-30T14:41:41;8.40;99.90
35111;DHT22;21290;50.158;8.658;2024-01-30T14:44:08;8.40;99.90
35111;DHT22;21290;50.158;8.658;2024-01-30T14:46:36;8.30;99.90
35111;DHT22;21290;50.158;8.658;2024-01-30T14:49:04;8.30;99.90
35111;DHT22;21290;50.158;8.658;2024-01-30T14:51:33;8.30;99.90
35111;DHT22;21290;50.158;8.658;2024-01-30T14:54:04;8.20;99.90
35111;DHT22;21290;50.158;8.658;2024-01-30T14:56:46;8.30;99.90
35111;DHT22;21290;50.158;8.658;2024-01-30T14:59:13;8.20;99.90
35111;DHT22;21290;50.158;8.658;2024-01-30T15:01:40;8.20;99.90
35111;DHT22;21290;50.158;8.658;2024-01-30T15:04:08;8.20;99.90
35111;DHT22;21290;50.158;8.658;2024-01-30T15:06:36;8.20;99.90
35111;DHT22;21290;50.158;8.658;2024-01-30T15:09:04;8.20;99.90
35111;DHT22;21290;50.158;8.658;2024-01-30T15:11:32;8.20;99.90
35111;DHT22;21290;50.158;8.658;2024-01-30T15:14:00;8.20;99.90
35111;DHT22;21290;50.158;8.658;2024-01-30T15:16:27;8.20;99.90
35111;DHT22;21290;50.158;8.658;2024-01-30T15:18:56;8.20;99.90
35111;DHT22;21290;50.158;8.658;2024-01-30T15:21:23;8.20;99.90
35111;DHT22;21290;50.158;8.658;2024-01-30T15:23:52;8.10;99.90
35111;DHT22;21290;50.158;8.658;2024-01-30T15:26:25;8.10;99.90
35111;DHT22;21290;50.158;8.658;2024-01-30T15:28:56;8.10;99.90
35111;DHT22;21290;50.158;8.658;2024-01-30T15:31:23;8.10;99.90
35111;DHT22;21290;50.158;8.658;2024-01-30T15:33:52;8.00;99.90
35111;DHT22;21290;50.158;8.658;2024-01-30T15:36:19;8.00;99.90
35111;DHT22;21290;50.158;8.658;2024-01-30T15:38:46;8.00;99.90
35111;DHT22;21290;50.158;8.658;2024-01-30T15:41:12;7.90;99.90
35111;DHT22;21290;50.158;8.658;2024-01-30T15:43:39;8.00;99.90
35111;DHT22;21290;50.158;8.658;2024-01-30T15:46:07;7.90;99.90
35111;DHT22;21290;50.158;8.658;2024-01-30T15:48:34;7.90;99.90
35111;DHT22;21290;50.158;8.658;2024-01-30T15:51:04;7.90;99.90
35111;DHT22;21290;50.158;8.658;2024-01-30T15:53:43;7.90;99.90
35111;DHT22;21290;50.158;8.658;2024-01-30T16:04:17;7.80;99.90
35111;DHT22;21290;50.158;8.658;2024-01-30T16:06:57;7.80;99.90
35111;DHT22;21290;50.158;8.658;2024-01-30T16:09:26;7.90;99.90
35111;DHT22;21290;50.158;8.658;2024-01-30T16:11:58;7.80;99.90
35111;DHT22;21290;50.158;8.658;2024-01-30T16:14:37;7.80;99.90
35111;DHT22;21290;50.158;8.658;2024-01-30T16:17:28;7.80;99.90
35111;DHT22;21290;50.158;8.658;2024-01-30T16:20:01;7.80;99.90
35111;DHT22;21290;50.158;8.658;2024-01-30T16:22:42;7.80;99.90
35111;DHT22;21290;50.158;8.658;2024-01-30T16:25:17;7.80;99.90
35111;DHT22;21290;50.158;8.658;2024-01-30T16:28:06;7.80;99.90
35111;DHT22;21290;50.158;8.658;2024-01-30T16:34:37;7.80;99.90
35111;DHT22;21290;50.158;8.658;2024-01-30T16:37:09;7.80;99.90
35111;DHT22;21290;50.158;8.658;2024-01-30T16:39:36;7.80;99.90
35111;DHT22;21290;50.158;8.658;2024-01-30T16:42:03;7.80;99.90
35111;DHT22;21290;50.158;8.658;2024-01-30T16:44:30;7.80;99.90
35111;DHT22;21290;50.158;8.658;2024-01-30T16:46:57;7.80;99.90
35111;DHT22;21290;50.158;8.658;2024-01-30T16:49:24;7.80;99.90
35111;DHT22;21290;50.158;8.658;2024-01-30T16:51:51;7.80;99.90
35111;DHT22;21290;50.158;8.658;2024-01-30T16:54:21;7.80;99.90
35111;DHT22;21290;50.158;8.658;2024-01-30T16:56:48;7.80;99.90
35111;DHT22;21290;50.158;8.658;2024-01-30T17:02:22;7.90;99.90
35111;DHT22;21290;50.158;8.658;2024-01-30T17:11:59;7.90;99.90
35111;DHT22;21290;50.158;8.658;2024-01-30T17:14:47;7.90;99.90
35111;DHT22;21290;50.158;8.658;2024-01-30T17:17:34;7.90;99.90
35111;DHT22;21290;50.158;8.658;2024-01-30T17:20:09;7.90;99.90
35111;DHT22;21290;50.158;8.658;2024-01-30T17:29:22;7.90;99.90
35111;DHT22;21290;50.158;8.658;2024-01-30T17:32:28;7.90;99.90
35111;DHT22;21290;50.158;8.658;2024-01-30T17:39:34;7.90;99.90
35111;DHT22;21290;50.158;8.658;2024-01-30T17:46:08;8.00;99.90
35111;DHT22;21290;50.158;8.658;2024-01-30T17:48:38;8.00;99.90
35111;DHT22;21290;50.158;8.658;2024-01-30T17:51:05;8.00;99.90
35111;DHT22;21290;50.158;8.658;2024-01-30T17:53:39;8.10;99.90
35111;DHT22;21290;50.158;8.658;2024-01-30T17:56:08;8.10;99.90
35111;DHT22;21290;50.158;8.658;2024-01-30T17:58:49;8.10;99.90
35111;DHT22;21290;50.158;8.658;2024-01-30T18:01:16;8.10;99.90
35111;DHT22;21290;50.158;8.658;2024-01-30T18:03:43;8.10;99.90
35111;DHT22;21290;50.158;8.658;2024-01-30T18:14:03;8.20;99.90
35111;DHT22;21290;50.158;8.658;2024-01-30T18:37:36;8.20;99.90
35111;DHT22;21290;50.158;8.658;2024-01-30T18:40:03;8.20;99.90
35111;DHT22;21290;50.158;8.658;2024-01-30T18:42:31;8.30;99.90
35111;DHT22;21290;50.158;8.658;2024-01-30T18:44:58;8.30;99.90
35111;DHT22;21290;50.158;8.658;2024-01-30T18:47:25;8.30;99.90
35111;DHT22;21290;50.158;8.658;2024-01-30T18:49:53;8.30;99.90
35111;DHT22;21290;50.158;8.658;2024-01-30T18:52:20;8.30;99.90
35111;DHT22;21290;50.158;8.658;2024-01-30T18:54:48;8.30;99.90
35111;DHT22;21290;50.158;8.658;2024-01-30T18:57:15;8.30;99.90
35111;DHT22;21290;50.158;8.658;2024-01-30T18:59:42;8.30;99.90
35111;DHT22;21290;50.158;8.658;2024-01-30T19:02:09;8.30;99.90
35111;DHT22;21290;50.158;8.658;2024-01-30T19:04:37;8.30;99.90
35111;DHT22;21290;50.158;8.658;2024-01-30T19:07:04;8.30;99.90
35111;DHT22;21290;50.158;8.658;2024-01-30T19:09:46;8.30;99.90
35111;DHT22;21290;50.158;8.658;2024-01-30T19:12:35;8.30;99.90
35111;DHT22;21290;50.158;8.658;2024-01-30T19:15:11;8.30;99.90
35111;DHT22;21290;50.158;8.658;2024-01-30T19:17:48;8.40;99.90
35111;DHT22;21290;50.158;8.658;2024-01-30T19:20:18;8.40;99.90
35111;DHT22;21290;50.158;8.658;2024-01-30T19:22:45;8.40;99.90
35111;DHT22;21290;50.158;8.658;2024-01-30T19:25:12;8.40;99.90
35111;DHT22;21290;50.158;8.658;2024-01-30T19:31:40;8.40;99.90
35111;DHT22;21290;50.158;8.658;2024-01-30T19:34:47;8.40;99.90
35111;DHT22;21290;50.158;8.658;2024-01-30T19:37:27;8.40;99.90
35111;DHT22;21290;50.158;8.658;2024-01-30T19:42:58;8.40;99.90
35111;DHT22;21290;50.158;8.658;2024-01-30T19:45:40;8.40;99.90
35111;DHT22;21290;50.158;8.658;2024-01-30T19:48:10;8.40;99.90
35111;DHT22;21290;50.158;8.658;2024-01-30T19:50:37;8.40;99.90
35111;DHT22;21290;50.158;8.658;2024-01-30T19:53:06;8.30;99.90
35111;DHT22;21290;50.158;8.658;2024-01-30T19:55:36;8.30;99.90
35111;DHT22;21290;50.158;8.658;2024-01-30T19:58:21;8.30;99.90
35111;DHT22;21290;50.158;8.658;2024-01-30T20:00:49;8.30;99.90
35111;DHT22;21290;50.158;8.658;2024-01-30T20:03:39;8.30;99.90
35111;DHT22;21290;50.158;8.658;2024-01-30T20:06:33;8.20;99.90
35111;DHT22;21290;50.158;8.658;2024-01-30T20:09:07;8.30;99.90
35111;DHT22;21290;50.158;8.658;2024-01-30T20:11:40;8.30;99.90
35111;DHT22;21290;50.158;8.658;2024-01-30T20:14:12;8.20;99.90
35111;DHT22;21290;50.158;8.658;2024-01-30T20:16:47;8.20;99.90
35111;DHT22;21290;50.158;8.658;2024-01-30T20:22:40;8.10;99.90
35111;DHT22;21290;50.158;8.658;2024-01-30T20:25:16;8.10;99.90
35111;DHT22;21290;50.158;8.658;2024-01-30T20:27:47;8.20;99.90
35111;DHT22;21290;50.158;8.658;2024-01-30T20:30:18;8.20;99.90
35111;DHT22;21290;50.158;8.658;2024-01-30T20:32:49;8.20;99.90
35111;DHT22;21290;50.158;8.658;2024-01-30T20:35:16;8.20;99.90
35111;DHT22;21290;50.158;8.658;2024-01-30T20:37:59;8.20;99.90
35111;DHT22;21290;50.158;8.658;2024-01-30T20:45:09;8.20;99.90
35111;DHT22;21290;50.158;8.658;2024-01-30T20:52:27;8.20;99.90
35111;DHT22;21290;50.158;8.658;2024-01-30T20:59:23;8.30;99.90
35111;DHT22;21290;50.158;8.658;2024-01-30T21:02:23;8.30;99.90
